K4MR

Melrose Gunnery Range Airport

New Mexico, USA
METAR K4MR 221658Z AUTO 20009KT 10SM FEW043 21/15 A3009 RMK AO2 SLP135 T02120146 $
Observed Flight Rules
May-22 @ 16:58 UTC (50 minutes ago) Visual Flight Rules
Wind Visibility Clouds
200° at 9 knots 10 miles
  • Few at 4,300' AGL
Temperatures Readings
Current 21°C / 70°F
Dewpoint 15°C / 59°F
Humidity 69%
Altimeter 30.09" Hg
Pressure 1013.5 hPa
Elevation 1326
METAR K4MR 221658Z AUTO 20009KT 10SM FEW043 21/15 A3009 RMK AO2 SLP135 T02120146 $
Observed Flight Rules
May-22 @ 16:58 UTC
(50 minutes ago)
VFR
Wind Visibility
200° at 9 knots 10 miles
Clouds
  • Few at 4,300' AGL
Temperature Dewpoint
21°C / 70°F 15°C / 59°F
Humidity Altimeter Pressure
69% 30.09" Hg 1013.5 hPa